KFYM/FYM METAR and TAF weather

Enter ICAO airport designator
Station Type Date Time Source
KFYM METAR 2018/12/15 20:20 UTC NOAA

KFYM 152020Z AUTO 24004KT 10SM OVC048 10/06 A2989 RMK A01


Station Type Date Time Source
KFYM Decoded METAR 2018/12/15 20:20 UTC NOAA

Station name not available
Dec 15, 2018 - 03:20 PM EST / 2018.12.15 2020 UTC
Wind: from the WSW (240 degrees) at 5 MPH (4 KT):0
Visibility: 10 mile(s):0
Sky conditions: overcast
Temperature: 50 F (10 C)
Dew Point: 42 F (6 C)
Relative Humidity: 76%
Pressure (altimeter): 29.89 in. Hg (1012 hPa)
ob: KFYM 152020Z AUTO 24004KT 10SM OVC048 10/06 A2989 RMK A01
cycle: 20

Station Type Date Time Source
KFYM TAF 2009/08/31 19:45 UTC NOAA

METAR KFYM 311945Z AUTO 01006KT 10SM CLR 26/11 A3009
RMK AO1 T02550111 $


Example: see airport list